Terminal Aerodrome Forecast
Issued by NWS

Home | Current Version | Previous Version | Text Only | Print | Product List | Glossary Off
Versions: 1 2 3 4 5 6 7 8 9 10 11 12 13 14 15 16 17 18 19

000
FTUS43 KBIS 311100
TAFDIK
TAF
KDIK 311120Z 3112/0112 06011KT 1/2SM FZFG OVC002
     FM311500 07016G24KT 2SM -SN OVC012
     FM010600 36011KT P6SM OVC025=

USA.gov is the U.S. government's official web portal to all federal, state and local government web resources and services.